createdAt,value
2022-08-25T00:02:08.101Z,100.00
2022-08-25T00:04:38.210Z,100.00
2022-08-25T00:07:07.815Z,100.00
2022-08-25T00:09:36.111Z,100.00
2022-08-25T00:12:04.795Z,100.00
2022-08-25T00:14:33.935Z,100.00
2022-08-25T00:17:03.589Z,100.00
2022-08-25T00:19:33.201Z,100.00
2022-08-25T00:22:01.819Z,100.00
2022-08-25T00:24:30.021Z,100.00
2022-08-25T00:26:58.756Z,100.00
2022-08-25T00:29:27.819Z,100.00
2022-08-25T00:31:56.546Z,100.00
2022-08-25T00:34:27.303Z,100.00
2022-08-25T00:36:55.541Z,100.00
2022-08-25T00:39:23.844Z,100.00
2022-08-25T00:41:52.434Z,100.00
2022-08-25T00:44:20.610Z,100.00
2022-08-25T00:46:50.754Z,100.00
2022-08-25T00:49:25.391Z,100.00
2022-08-25T00:51:57.007Z,100.00
2022-08-25T00:54:26.299Z,100.00
2022-08-25T00:56:54.415Z,100.00
2022-08-25T00:59:22.587Z,100.00
2022-08-25T01:01:51.417Z,100.00
2022-08-25T01:04:19.669Z,100.00
2022-08-25T01:06:47.799Z,100.00
2022-08-25T01:09:17.526Z,100.00
2022-08-25T01:11:45.735Z,100.00
2022-08-25T01:14:14.216Z,100.00
2022-08-25T01:16:43.849Z,100.00
2022-08-25T01:19:15.455Z,100.00
2022-08-25T01:21:46.811Z,100.00
2022-08-25T01:24:19.906Z,100.00
2022-08-25T01:26:48.019Z,100.00
2022-08-25T01:29:22.307Z,100.00
2022-08-25T01:31:50.483Z,100.00
2022-08-25T01:34:19.015Z,100.00
2022-08-25T01:36:48.569Z,100.00
2022-08-25T01:39:16.670Z,100.00
2022-08-25T01:41:51.616Z,100.00
2022-08-25T01:44:19.784Z,100.00
2022-08-25T01:46:47.924Z,100.00
2022-08-25T01:49:16.015Z,100.00
2022-08-25T01:51:46.177Z,100.00
2022-08-25T01:54:15.694Z,100.00
2022-08-25T01:56:44.221Z,100.00
2022-08-25T01:59:12.341Z,100.00
2022-08-25T02:01:42.293Z,100.00
2022-08-25T02:04:10.663Z,100.00
2022-08-25T02:06:39.863Z,100.00
2022-08-25T02:09:10.270Z,100.00
2022-08-25T02:11:42.105Z,100.00
2022-08-25T02:14:11.716Z,100.00
2022-08-25T02:16:40.452Z,100.00
2022-08-25T02:19:11.314Z,100.00
2022-08-25T02:21:39.454Z,100.00
2022-08-25T02:24:08.181Z,100.00
2022-08-25T02:26:36.515Z,100.00
2022-08-25T02:29:06.764Z,100.00
2022-08-25T02:31:34.910Z,100.00
2022-08-25T02:34:03.186Z,100.00
2022-08-25T02:36:32.248Z,100.00
2022-08-25T02:39:00.551Z,100.00
2022-08-25T02:41:31.615Z,100.00
2022-08-25T02:44:00.184Z,100.00
2022-08-25T02:46:29.850Z,100.00
2022-08-25T02:48:57.987Z,100.00
2022-08-25T02:51:27.547Z,100.00
2022-08-25T02:53:56.336Z,100.00
2022-08-25T02:56:24.700Z,100.00
2022-08-25T02:58:52.916Z,100.00
2022-08-25T03:01:22.115Z,100.00
2022-08-25T03:03:58.476Z,100.00
2022-08-25T03:06:28.062Z,100.00
2022-08-25T03:08:56.263Z,100.00
2022-08-25T03:11:26.595Z,100.00
2022-08-25T03:13:54.787Z,100.00
2022-08-25T03:16:22.993Z,100.00
2022-08-25T03:18:56.259Z,100.00
2022-08-25T03:21:26.965Z,100.00
2022-08-25T03:23:55.122Z,100.00
2022-08-25T03:26:41.022Z,100.00
2022-08-25T03:29:09.189Z,100.00
2022-08-25T03:31:37.405Z,100.00
2022-08-25T03:34:05.876Z,100.00
2022-08-25T03:36:35.389Z,100.00
2022-08-25T03:39:03.495Z,100.00
2022-08-25T03:41:32.658Z,100.00
2022-08-25T03:44:00.877Z,100.00
2022-08-25T03:46:30.254Z,100.00
2022-08-25T03:48:58.363Z,100.00
2022-08-25T03:51:28.717Z,100.00
2022-08-25T03:53:58.310Z,100.00
2022-08-25T03:56:27.415Z,100.00
2022-08-25T03:58:55.803Z,100.00
2022-08-25T04:01:24.140Z,100.00
2022-08-25T04:03:52.283Z,100.00
2022-08-25T04:06:20.619Z,100.00
2022-08-25T04:08:48.726Z,100.00
2022-08-25T04:11:19.598Z,100.00
2022-08-25T04:13:48.112Z,100.00
2022-08-25T04:16:18.660Z,100.00
2022-08-25T04:18:47.660Z,100.00
2022-08-25T04:21:15.778Z,100.00
2022-08-25T04:23:44.778Z,100.00
2022-08-25T04:26:13.588Z,100.00
2022-08-25T04:28:43.014Z,100.00
2022-08-25T04:31:11.898Z,100.00
2022-08-25T04:33:40.186Z,100.00
2022-08-25T04:36:12.233Z,100.00
2022-08-25T04:38:40.668Z,100.00
2022-08-25T04:41:09.272Z,100.00
2022-08-25T04:43:39.368Z,100.00
2022-08-25T04:46:09.137Z,100.00
2022-08-25T04:48:37.333Z,100.00
2022-08-25T04:51:06.401Z,100.00
2022-08-25T04:53:34.779Z,100.00
2022-08-25T04:56:03.932Z,100.00
2022-08-25T04:58:32.115Z,100.00
2022-08-25T05:01:03.276Z,100.00
2022-08-25T05:03:32.815Z,100.00
2022-08-25T05:06:01.387Z,100.00
2022-08-25T05:08:29.468Z,100.00
2022-08-25T05:10:57.581Z,100.00
2022-08-25T05:13:26.828Z,100.00
2022-08-25T05:15:55.608Z,100.00
2022-08-25T05:18:24.369Z,100.00
2022-08-25T05:20:54.985Z,100.00
2022-08-25T05:23:23.305Z,100.00
2022-08-25T05:25:51.596Z,100.00
2022-08-25T05:28:19.826Z,100.00
2022-08-25T05:30:48.744Z,100.00
2022-08-25T05:33:17.319Z,100.00
2022-08-25T05:35:45.441Z,100.00
2022-08-25T05:38:15.301Z,100.00
2022-08-25T05:40:43.806Z,100.00
2022-08-25T05:43:12.388Z,100.00
2022-08-25T05:45:40.939Z,100.00
2022-08-25T05:48:09.166Z,100.00
2022-08-25T05:50:37.899Z,100.00
2022-08-25T05:53:06.780Z,100.00
2022-08-25T05:55:37.216Z,100.00
2022-08-25T05:58:06.706Z,100.00
2022-08-25T06:00:38.828Z,100.00
2022-08-25T06:03:05.937Z,100.00
2022-08-25T06:05:34.039Z,100.00
2022-08-25T06:08:02.203Z,100.00
2022-08-25T06:10:30.385Z,100.00
2022-08-25T06:13:00.206Z,100.00
2022-08-25T06:15:28.343Z,100.00
2022-08-25T06:18:01.733Z,100.00
2022-08-25T06:20:33.110Z,100.00
2022-08-25T06:23:01.394Z,100.00
2022-08-25T06:25:32.742Z,100.00
2022-08-25T06:28:02.540Z,100.00
2022-08-25T06:30:31.259Z,100.00
2022-08-25T06:32:59.355Z,100.00
2022-08-25T06:35:28.150Z,100.00
2022-08-25T06:37:56.285Z,100.00
2022-08-25T06:40:26.096Z,100.00
2022-08-25T06:42:54.317Z,100.00
2022-08-25T06:45:23.799Z,100.00
2022-08-25T06:47:52.873Z,100.00
2022-08-25T06:50:21.618Z,100.00
2022-08-25T06:52:49.681Z,100.00
2022-08-25T06:55:18.261Z,100.00
2022-08-25T06:57:46.837Z,100.00
2022-08-25T07:00:15.281Z,100.00
2022-08-25T07:02:44.758Z,100.00
2022-08-25T07:05:17.143Z,100.00
2022-08-25T07:07:55.202Z,100.00
2022-08-25T07:10:23.831Z,100.00
2022-08-25T07:12:52.006Z,100.00
2022-08-25T07:15:21.024Z,100.00
2022-08-25T07:17:51.098Z,100.00
2022-08-25T07:20:19.705Z,100.00
2022-08-25T07:22:48.179Z,100.00
2022-08-25T07:25:17.768Z,100.00
2022-08-25T07:27:46.100Z,100.00
2022-08-25T07:30:14.330Z,100.00
2022-08-25T07:32:43.272Z,100.00
2022-08-25T07:35:19.576Z,100.00
2022-08-25T07:37:49.811Z,100.00
2022-08-25T07:40:19.857Z,100.00
2022-08-25T07:42:48.207Z,100.00
2022-08-25T07:45:20.410Z,100.00
2022-08-25T07:47:51.621Z,100.00
2022-08-25T07:50:21.659Z,100.00
2022-08-25T07:52:55.284Z,100.00
2022-08-25T07:55:24.164Z,100.00
2022-08-25T07:57:55.405Z,100.00
2022-08-25T08:00:27.703Z,100.00
2022-08-25T08:02:56.455Z,100.00
2022-08-25T08:05:26.268Z,100.00
2022-08-25T08:07:54.379Z,100.00
2022-08-25T08:10:48.171Z,100.00
2022-08-25T08:13:13.413Z,100.00
2022-08-25T08:15:46.332Z,100.00
2022-08-25T08:18:14.484Z,100.00
2022-08-25T08:20:46.657Z,100.00
2022-08-25T08:23:14.761Z,100.00
2022-08-25T08:25:42.903Z,98.93
2022-08-25T08:28:11.075Z,97.81
2022-08-25T08:30:39.522Z,93.53
2022-08-25T08:33:21.515Z,96.39
2022-08-25T08:35:57.212Z,96.20
2022-08-25T08:38:27.404Z,93.88
2022-08-25T08:41:23.238Z,87.80
2022-08-25T08:43:54.371Z,89.28
2022-08-25T08:46:22.871Z,91.63
2022-08-25T08:48:59.882Z,93.91
2022-08-25T08:51:33.158Z,90.67
2022-08-25T08:54:03.791Z,89.82
2022-08-25T08:56:36.414Z,91.26
2022-08-25T08:59:06.707Z,90.17
2022-08-25T09:01:35.770Z,89.37
2022-08-25T09:04:06.488Z,86.25
2022-08-25T09:06:39.225Z,84.98
2022-08-25T09:09:07.303Z,83.10
2022-08-25T09:11:47.507Z,85.05
2022-08-25T09:14:23.382Z,83.88
2022-08-25T09:17:02.362Z,84.67
2022-08-25T09:19:43.227Z,82.86
2022-08-25T09:22:34.024Z,80.41
2022-08-25T09:25:08.928Z,80.40
2022-08-25T09:27:41.738Z,77.88
2022-08-25T09:30:11.533Z,79.06
2022-08-25T09:32:50.402Z,77.02
2022-08-25T09:35:22.156Z,75.69
2022-08-25T09:38:01.983Z,76.07
2022-08-25T09:40:31.121Z,72.90
2022-08-25T09:43:01.188Z,71.92
2022-08-25T09:45:42.610Z,72.27
2022-08-25T09:48:24.810Z,67.72
2022-08-25T09:50:53.179Z,67.81
2022-08-25T09:53:23.191Z,73.29
2022-08-25T09:55:59.790Z,73.83
2022-08-25T09:58:28.791Z,72.33
2022-08-25T10:01:14.522Z,74.74
2022-08-25T10:03:59.911Z,72.32
2022-08-25T10:06:29.683Z,72.24
2022-08-25T10:09:01.010Z,72.29
2022-08-25T10:11:34.797Z,73.71
2022-08-25T10:14:04.776Z,71.60
2022-08-25T10:16:36.165Z,70.56
2022-08-25T10:19:10.030Z,74.22
2022-08-25T10:21:39.095Z,69.35
2022-08-25T10:24:08.839Z,68.71
2022-08-25T10:26:48.811Z,68.45
2022-08-25T10:29:26.797Z,59.42
2022-08-25T10:31:57.815Z,61.48
2022-08-25T10:34:35.812Z,64.45
2022-08-25T10:37:09.561Z,64.59
2022-08-25T10:39:42.277Z,69.16
2022-08-25T10:42:27.211Z,67.14
2022-08-25T10:45:22.285Z,65.24
2022-08-25T10:48:00.559Z,60.76
2022-08-25T10:50:30.528Z,62.02
2022-08-25T10:53:19.419Z,57.47
2022-08-25T10:55:54.478Z,58.66
2022-08-25T10:58:25.793Z,62.02
2022-08-25T11:01:02.918Z,61.45
2022-08-25T11:03:44.631Z,62.60
2022-08-25T11:06:15.285Z,63.94
2022-08-25T11:08:44.989Z,60.02
2022-08-25T11:11:21.825Z,61.66
2022-08-25T11:13:52.976Z,62.78
2022-08-25T11:16:50.154Z,59.50
2022-08-25T11:19:24.089Z,59.43
2022-08-25T11:21:55.210Z,60.69
2022-08-25T11:24:38.265Z,58.80
2022-08-25T11:27:13.770Z,58.88
2022-08-25T11:29:41.957Z,59.86
2022-08-25T11:32:10.205Z,60.16
2022-08-25T11:34:43.733Z,60.10
2022-08-25T11:37:15.872Z,58.92
2022-08-25T11:40:17.363Z,60.48
2022-08-25T11:43:08.080Z,60.18
2022-08-25T11:45:55.084Z,61.09
2022-08-25T11:48:30.725Z,61.28
2022-08-25T11:51:01.678Z,63.33
2022-08-25T11:53:30.767Z,62.55
2022-08-25T11:56:02.568Z,63.17
2022-08-25T11:58:46.453Z,61.24
2022-08-25T12:01:47.612Z,61.39
2022-08-25T12:04:17.378Z,60.28
2022-08-25T12:07:17.948Z,59.80
2022-08-25T12:10:22.734Z,60.38
2022-08-25T12:13:01.885Z,62.08
2022-08-25T12:15:51.004Z,64.08
2022-08-25T12:18:46.099Z,60.87
2022-08-25T12:21:16.508Z,61.80
2022-08-25T12:23:45.508Z,59.31
2022-08-25T12:26:22.078Z,60.78
2022-08-25T12:29:07.567Z,59.92
2022-08-25T12:32:13.613Z,61.64
2022-08-25T12:34:56.073Z,61.58
2022-08-25T12:37:24.992Z,61.43
2022-08-25T12:39:59.320Z,59.62
2022-08-25T12:42:31.367Z,59.73
2022-08-25T12:45:37.359Z,63.57
2022-08-25T12:48:43.825Z,61.75
2022-08-25T12:51:17.694Z,61.08
2022-08-25T12:53:48.129Z,59.78
2022-08-25T12:56:24.128Z,61.97
2022-08-25T12:59:01.022Z,62.03
2022-08-25T13:01:36.308Z,62.17
2022-08-25T13:04:31.964Z,62.65
2022-08-25T13:07:06.787Z,59.92
2022-08-25T13:10:05.517Z,60.38
2022-08-25T13:12:35.431Z,56.88
2022-08-25T13:15:03.856Z,56.18
2022-08-25T13:17:34.326Z,55.75
2022-08-25T13:20:18.307Z,53.87
2022-08-25T13:22:48.671Z,55.49
2022-08-25T13:25:18.326Z,55.16
2022-08-25T13:27:52.593Z,55.51
2022-08-25T13:30:24.907Z,55.49
2022-08-25T13:32:53.011Z,55.72
2022-08-25T13:35:26.536Z,55.48
2022-08-25T13:38:16.953Z,58.35
2022-08-25T13:40:45.125Z,58.92
2022-08-25T13:43:14.948Z,58.91
2022-08-25T13:45:44.894Z,58.53
2022-08-25T13:48:20.944Z,60.51
2022-08-25T13:50:52.996Z,59.99
2022-08-25T13:53:23.873Z,61.69
2022-08-25T13:55:53.311Z,61.07
2022-08-25T13:58:24.919Z,60.30
2022-08-25T14:01:22.214Z,61.03
2022-08-25T14:04:22.488Z,61.98
2022-08-25T14:07:19.508Z,61.81
2022-08-25T14:09:50.206Z,58.83
2022-08-25T14:12:29.688Z,57.73
2022-08-25T14:15:02.974Z,62.57
2022-08-25T14:17:39.851Z,60.35
2022-08-25T14:20:17.423Z,63.85
2022-08-25T14:22:46.993Z,57.72
2022-08-25T14:25:15.077Z,57.22
2022-08-25T14:28:06.732Z,56.30
2022-08-25T14:30:34.409Z,55.63
2022-08-25T14:33:02.511Z,56.80
2022-08-25T14:35:30.690Z,53.81
2022-08-25T14:38:09.987Z,52.85
2022-08-25T14:40:39.134Z,53.52
2022-08-25T14:43:09.576Z,54.63
2022-08-25T14:45:38.729Z,56.97
2022-08-25T14:48:10.874Z,53.47
2022-08-25T14:50:41.905Z,53.94
2022-08-25T14:53:12.313Z,52.83
2022-08-25T14:55:40.349Z,54.14
2022-08-25T14:58:08.941Z,52.74
2022-08-25T15:00:38.775Z,52.29
2022-08-25T15:03:07.052Z,50.65
2022-08-25T15:05:35.283Z,49.90
2022-08-25T15:08:21.128Z,50.69
2022-08-25T15:10:50.800Z,50.16
2022-08-25T15:13:19.361Z,49.32
2022-08-25T15:15:52.450Z,49.35
2022-08-25T15:18:21.632Z,50.26
2022-08-25T15:20:50.313Z,51.48
2022-08-25T15:23:26.367Z,50.66
2022-08-25T15:26:07.189Z,50.64
2022-08-25T15:28:39.076Z,51.52
2022-08-25T15:31:07.318Z,51.95
2022-08-25T15:33:36.478Z,49.49
2022-08-25T15:36:05.023Z,49.84
2022-08-25T15:38:33.208Z,49.19
2022-08-25T15:41:03.137Z,50.10
2022-08-25T15:43:31.312Z,49.13
2022-08-25T15:45:59.622Z,50.13
2022-08-25T15:48:27.968Z,49.95
2022-08-25T15:50:56.889Z,50.09
2022-08-25T15:53:26.165Z,50.41
2022-08-25T15:55:57.584Z,50.57
2022-08-25T15:58:30.289Z,51.14
2022-08-25T16:00:58.580Z,51.85
2022-08-25T16:03:28.160Z,53.22
2022-08-25T16:05:56.882Z,51.59
2022-08-25T16:08:24.970Z,51.56
2022-08-25T16:10:59.364Z,53.07
2022-08-25T16:13:29.244Z,54.75
2022-08-25T16:16:01.002Z,54.32
2022-08-25T16:18:30.108Z,54.92
2022-08-25T16:20:59.677Z,56.68
2022-08-25T16:23:28.368Z,57.48
2022-08-25T16:25:56.541Z,58.72
2022-08-25T16:28:25.914Z,58.42
2022-08-25T16:30:56.123Z,59.31
2022-08-25T16:33:24.378Z,59.50
2022-08-25T16:35:54.107Z,59.40
2022-08-25T16:38:26.673Z,59.71
2022-08-25T16:40:56.986Z,59.87
2022-08-25T16:43:25.639Z,60.28
2022-08-25T16:46:00.291Z,61.46
2022-08-25T16:48:29.472Z,62.17
2022-08-25T16:50:58.066Z,63.90
2022-08-25T16:53:43.801Z,64.40
2022-08-25T16:56:19.138Z,64.32
2022-08-25T16:58:47.343Z,64.78
2022-08-25T17:01:22.848Z,66.25
2022-08-25T17:03:52.382Z,66.61
2022-08-25T17:06:20.661Z,66.89
2022-08-25T17:08:50.895Z,68.57
2022-08-25T17:11:20.328Z,67.86
2022-08-25T17:13:50.122Z,68.88
2022-08-25T17:16:18.456Z,68.25
2022-08-25T17:18:49.993Z,70.67
2022-08-25T17:21:23.796Z,69.29
2022-08-25T17:23:53.073Z,70.20
2022-08-25T17:26:27.896Z,71.34
2022-08-25T17:28:57.284Z,72.02
2022-08-25T17:31:27.656Z,71.91
2022-08-25T17:33:57.982Z,72.38
2022-08-25T17:36:27.187Z,73.00
2022-08-25T17:38:56.780Z,72.47
2022-08-25T17:41:25.367Z,72.38
2022-08-25T17:43:53.674Z,75.11
2022-08-25T17:46:22.164Z,75.01
2022-08-25T17:48:50.265Z,74.77
2022-08-25T17:51:20.420Z,74.56
2022-08-25T17:53:49.713Z,76.46
2022-08-25T17:56:19.213Z,78.13
2022-08-25T17:58:48.287Z,78.25
2022-08-25T18:01:17.088Z,80.84
2022-08-25T18:03:45.233Z,80.90
2022-08-25T18:06:15.087Z,80.89
2022-08-25T18:08:52.287Z,80.41
2022-08-25T18:11:23.708Z,82.61
2022-08-25T18:13:53.797Z,82.45
2022-08-25T18:16:22.029Z,83.50
2022-08-25T18:18:50.209Z,85.87
2022-08-25T18:21:20.390Z,86.98
2022-08-25T18:23:49.997Z,86.61
2022-08-25T18:26:24.789Z,88.24
2022-08-25T18:28:53.791Z,88.50
2022-08-25T18:31:21.978Z,89.31
2022-08-25T18:33:51.004Z,89.37
2022-08-25T18:36:21.330Z,89.46
2022-08-25T18:39:08.769Z,89.52
2022-08-25T18:41:38.157Z,89.63
2022-08-25T18:44:06.575Z,90.24
2022-08-25T18:46:34.891Z,89.92
2022-08-25T18:49:04.575Z,88.32
2022-08-25T18:51:33.374Z,89.42
2022-08-25T18:54:03.500Z,90.05
2022-08-25T18:56:31.840Z,91.06
2022-08-25T18:59:01.031Z,90.91
2022-08-25T19:01:29.376Z,91.65
2022-08-25T19:03:57.664Z,93.31
2022-08-25T19:06:26.123Z,94.42
2022-08-25T19:08:54.556Z,96.04
2022-08-25T19:11:24.072Z,95.89
2022-08-25T19:13:52.509Z,96.08
2022-08-25T19:16:32.097Z,96.12
2022-08-25T19:19:02.524Z,96.60
2022-08-25T19:21:31.905Z,97.88
2022-08-25T19:24:01.034Z,98.53
2022-08-25T19:26:34.379Z,98.26
2022-08-25T19:29:02.558Z,98.56
2022-08-25T19:31:33.345Z,99.01
2022-08-25T19:34:02.144Z,99.45
2022-08-25T19:36:31.058Z,98.41
2022-08-25T19:39:01.218Z,99.26
2022-08-25T19:41:29.701Z,99.26
2022-08-25T19:44:00.364Z,99.22
2022-08-25T19:46:32.231Z,100.00
2022-08-25T19:49:06.869Z,100.00
2022-08-25T19:51:36.784Z,100.00
2022-08-25T19:54:05.681Z,100.00
2022-08-25T19:56:35.186Z,100.00
2022-08-25T19:59:06.346Z,100.00
2022-08-25T20:01:36.230Z,100.00
2022-08-25T20:04:05.195Z,100.00
2022-08-25T20:06:33.314Z,100.00
2022-08-25T20:09:01.570Z,100.00
2022-08-25T20:11:29.829Z,100.00
2022-08-25T20:14:03.124Z,100.00
2022-08-25T20:16:33.744Z,100.00
2022-08-25T20:19:02.035Z,100.00
2022-08-25T20:21:34.005Z,100.00
2022-08-25T20:24:24.493Z,100.00
2022-08-25T20:26:52.864Z,100.00
2022-08-25T20:29:21.396Z,100.00
2022-08-25T20:31:53.235Z,100.00
2022-08-25T20:34:21.483Z,100.00
2022-08-25T20:36:50.479Z,100.00
2022-08-25T20:39:20.253Z,100.00
2022-08-25T20:41:48.679Z,99.73
2022-08-25T20:44:17.333Z,100.00
2022-08-25T20:46:45.549Z,100.00
2022-08-25T20:49:15.620Z,99.54
2022-08-25T20:51:44.102Z,100.00
2022-08-25T20:54:14.199Z,99.59
2022-08-25T20:56:43.037Z,100.00
2022-08-25T20:59:11.657Z,100.00
2022-08-25T21:01:41.317Z,100.00
2022-08-25T21:04:11.167Z,100.00
2022-08-25T21:06:44.328Z,100.00
2022-08-25T21:09:16.118Z,100.00
2022-08-25T21:11:45.085Z,100.00
2022-08-25T21:14:13.719Z,100.00
2022-08-25T21:16:46.398Z,100.00
2022-08-25T21:19:16.032Z,100.00
2022-08-25T21:21:45.844Z,100.00
2022-08-25T21:24:14.827Z,100.00
2022-08-25T21:26:48.562Z,100.00
2022-08-25T21:29:17.275Z,100.00
2022-08-25T21:31:45.366Z,100.00
2022-08-25T21:34:13.695Z,100.00
2022-08-25T21:36:42.019Z,100.00
2022-08-25T21:39:11.567Z,100.00
2022-08-25T21:41:40.405Z,100.00
2022-08-25T21:44:08.534Z,100.00
2022-08-25T21:46:36.824Z,100.00
2022-08-25T21:49:06.113Z,100.00
2022-08-25T21:51:35.791Z,100.00
2022-08-25T21:54:12.366Z,100.00
2022-08-25T21:56:43.232Z,100.00
2022-08-25T21:59:12.815Z,100.00
2022-08-25T22:01:41.181Z,100.00
2022-08-25T22:04:11.334Z,100.00
2022-08-25T22:06:39.724Z,100.00
2022-08-25T22:09:08.682Z,100.00
2022-08-25T22:11:36.804Z,100.00
2022-08-25T22:14:07.080Z,100.00
2022-08-25T22:16:35.341Z,100.00
2022-08-25T22:19:03.803Z,100.00
2022-08-25T22:21:32.731Z,100.00
2022-08-25T22:24:00.835Z,100.00
2022-08-25T22:26:30.180Z,100.00
2022-08-25T22:28:59.143Z,100.00
2022-08-25T22:31:29.552Z,100.00
2022-08-25T22:33:58.560Z,100.00
2022-08-25T22:36:29.353Z,100.00
2022-08-25T22:38:57.599Z,100.00
2022-08-25T22:41:28.311Z,100.00
2022-08-25T22:43:56.742Z,100.00
2022-08-25T22:46:27.937Z,100.00
2022-08-25T22:48:57.575Z,100.00
2022-08-25T22:51:28.514Z,100.00
2022-08-25T22:53:56.581Z,100.00
2022-08-25T22:56:32.098Z,100.00
2022-08-25T22:59:00.607Z,100.00
2022-08-25T23:01:29.054Z,100.00
2022-08-25T23:03:59.411Z,100.00
2022-08-25T23:06:28.007Z,100.00
2022-08-25T23:08:56.317Z,100.00
2022-08-25T23:11:24.785Z,100.00
2022-08-25T23:13:55.296Z,100.00
2022-08-25T23:16:23.504Z,100.00
2022-08-25T23:18:52.528Z,100.00
2022-08-25T23:21:41.327Z,100.00
2022-08-25T23:24:11.086Z,100.00
2022-08-25T23:26:42.433Z,100.00
2022-08-25T23:29:18.039Z,100.00
2022-08-25T23:31:47.910Z,100.00
2022-08-25T23:34:16.246Z,100.00
2022-08-25T23:36:45.690Z,100.00
2022-08-25T23:39:14.538Z,100.00
2022-08-25T23:41:42.694Z,100.00
2022-08-25T23:44:11.921Z,100.00
2022-08-25T23:46:45.352Z,100.00
2022-08-25T23:49:18.106Z,100.00
2022-08-25T23:51:48.918Z,100.00
2022-08-25T23:54:17.283Z,100.00
2022-08-25T23:56:51.675Z,100.00
2022-08-25T23:59:24.155Z,100.00
